createdAt,value
2022-08-26T00:01:34.877Z,101599.84
2022-08-26T00:05:36.706Z,101597.50
2022-08-26T00:09:40.192Z,101598.78
2022-08-26T00:13:42.903Z,101595.88
2022-08-26T00:17:50.521Z,101588.94
2022-08-26T00:21:52.140Z,101590.56
2022-08-26T00:25:54.592Z,101587.47
2022-08-26T00:29:58.306Z,101591.78
2022-08-26T00:33:59.783Z,101585.94
2022-08-26T00:38:02.197Z,101591.44
2022-08-26T00:42:04.572Z,101585.22
2022-08-26T00:46:14.763Z,101575.47
2022-08-26T00:50:21.735Z,101575.22
2022-08-26T00:54:27.311Z,101573.94
2022-08-26T00:58:32.189Z,101573.22
2022-08-26T01:02:33.906Z,101576.66
2022-08-26T01:06:35.491Z,101575.19
2022-08-26T01:10:37.208Z,101573.50
2022-08-26T01:14:40.919Z,101572.06
2022-08-26T01:18:48.433Z,101569.28
2022-08-26T01:23:04.777Z,101570.78
2022-08-26T01:27:12.279Z,101575.72
2022-08-26T01:31:18.663Z,101576.16
2022-08-26T01:35:21.389Z,101571.94
2022-08-26T01:39:23.621Z,101573.94
2022-08-26T01:43:28.302Z,101565.97
2022-08-26T01:47:32.112Z,101567.00
2022-08-26T01:51:37.253Z,101566.03
2022-08-26T01:55:42.906Z,101559.63
2022-08-26T01:59:44.665Z,101560.53
2022-08-26T02:04:01.324Z,101564.69
2022-08-26T02:08:04.188Z,101559.34
2022-08-26T02:12:06.344Z,101559.88
2022-08-26T02:16:14.840Z,101562.53
2022-08-26T02:20:19.762Z,101547.69
2022-08-26T02:24:27.947Z,101551.91
2022-08-26T02:28:35.673Z,101541.38
2022-08-26T02:32:37.625Z,101540.16
2022-08-26T02:36:42.276Z,101545.47
2022-08-26T02:40:44.011Z,101542.03
2022-08-26T02:44:45.462Z,101541.59
2022-08-26T02:48:46.991Z,101527.38
2022-08-26T02:52:48.862Z,101521.63
2022-08-26T02:56:51.264Z,101522.97
2022-08-26T03:00:53.799Z,101519.53
2022-08-26T03:04:58.050Z,101519.59
2022-08-26T03:09:05.317Z,101517.06
2022-08-26T03:13:07.018Z,101511.03
2022-08-26T03:17:08.678Z,101511.84
2022-08-26T03:21:15.399Z,101523.13
2022-08-26T03:25:17.524Z,101515.75
2022-08-26T03:29:37.858Z,101507.13
2022-08-26T03:33:40.707Z,101505.94
2022-08-26T03:37:42.489Z,101512.38
2022-08-26T03:41:45.093Z,101512.97
2022-08-26T03:45:46.632Z,101510.97
2022-08-26T03:49:48.506Z,101502.47
2022-08-26T03:53:53.438Z,101508.25
2022-08-26T03:57:54.979Z,101503.34
2022-08-26T04:01:58.088Z,101497.03
2022-08-26T04:05:59.799Z,101502.03
2022-08-26T04:10:02.073Z,101509.69
2022-08-26T04:14:07.073Z,101507.16
2022-08-26T04:18:08.889Z,101499.84
2022-08-26T04:22:10.645Z,101495.19
2022-08-26T04:26:12.188Z,101497.19
2022-08-26T04:30:14.436Z,101507.09
2022-08-26T04:34:17.272Z,101515.22
2022-08-26T04:38:19.899Z,101502.47
2022-08-26T04:42:25.892Z,101503.66
2022-08-26T04:46:27.881Z,101507.69
2022-08-26T04:50:29.605Z,101504.22
2022-08-26T04:54:31.312Z,101495.19
2022-08-26T04:58:32.874Z,101507.72
2022-08-26T05:02:34.381Z,101502.28
2022-08-26T05:06:37.209Z,101509.34
2022-08-26T05:10:41.010Z,101511.66
2022-08-26T05:14:42.500Z,101504.78
2022-08-26T05:18:45.636Z,101505.09
2022-08-26T05:22:47.872Z,101517.06
2022-08-26T05:26:49.844Z,101504.88
2022-08-26T05:30:52.249Z,101506.50
2022-08-26T05:34:55.387Z,101509.47
2022-08-26T05:38:57.676Z,101511.44
2022-08-26T05:43:00.164Z,101512.53
2022-08-26T05:47:04.222Z,101507.00
2022-08-26T05:51:08.482Z,101520.28
2022-08-26T05:55:10.311Z,101515.91
2022-08-26T05:59:15.466Z,101523.72
2022-08-26T06:03:17.297Z,101521.03
2022-08-26T06:07:38.888Z,101522.31
2022-08-26T06:11:41.583Z,101523.31
2022-08-26T06:15:46.574Z,101515.84
2022-08-26T06:19:48.118Z,101510.66
2022-08-26T06:24:12.128Z,101515.38
2022-08-26T06:28:14.851Z,101513.56
2022-08-26T06:32:17.479Z,101503.97
2022-08-26T06:36:21.825Z,101510.00
2022-08-26T06:40:25.046Z,101506.13
2022-08-26T06:44:27.124Z,101498.56
2022-08-26T06:48:28.798Z,101505.94
2022-08-26T06:52:30.299Z,101514.00
2022-08-26T06:56:37.927Z,101506.38
2022-08-26T07:00:40.411Z,101501.66
2022-08-26T07:04:44.388Z,101500.72
2022-08-26T07:08:51.706Z,101503.81
2022-08-26T07:12:53.961Z,101502.63
2022-08-26T07:16:56.389Z,101506.50
2022-08-26T07:21:00.462Z,101505.34
2022-08-26T07:25:02.014Z,101491.13
2022-08-26T07:29:05.451Z,101495.69
2022-08-26T07:33:07.483Z,101497.22
2022-08-26T07:37:10.151Z,101497.19
2022-08-26T07:41:13.251Z,101498.34
2022-08-26T07:45:14.864Z,101499.09
2022-08-26T07:49:17.745Z,101498.84
2022-08-26T07:53:20.486Z,101499.13
2022-08-26T07:57:22.053Z,101503.50
2022-08-26T08:01:26.816Z,101492.47
2022-08-26T08:05:33.409Z,101506.84
2022-08-26T08:09:36.446Z,101506.19
2022-08-26T08:13:42.300Z,101507.78
2022-08-26T08:17:44.176Z,101502.94
2022-08-26T08:21:46.869Z,101496.59
2022-08-26T08:25:49.227Z,101500.47
2022-08-26T08:29:51.023Z,101491.81
2022-08-26T08:33:53.984Z,101490.81
2022-08-26T08:37:56.491Z,101485.19
2022-08-26T08:42:05.893Z,101486.47
2022-08-26T08:46:16.818Z,101482.34
2022-08-26T08:50:29.885Z,101473.63
2022-08-26T08:54:32.496Z,101467.28
2022-08-26T08:58:47.608Z,101471.44
2022-08-26T09:02:58.611Z,101471.16
2022-08-26T09:07:02.964Z,101469.56
2022-08-26T09:11:04.519Z,101463.34
2022-08-26T09:15:18.663Z,101468.75
2022-08-26T09:19:30.167Z,101466.84
2022-08-26T09:23:34.142Z,101472.13
2022-08-26T09:27:42.775Z,101469.34
2022-08-26T09:31:45.269Z,101468.69
2022-08-26T09:35:48.783Z,101468.59
2022-08-26T09:39:50.514Z,101471.25
2022-08-26T09:44:15.566Z,101453.47
2022-08-26T09:48:31.174Z,101442.41
2022-08-26T09:52:33.448Z,101444.69
2022-08-26T09:56:37.801Z,101451.53
2022-08-26T10:00:55.563Z,101447.69
2022-08-26T10:04:58.844Z,101441.94
2022-08-26T10:09:13.739Z,101444.06
2022-08-26T10:13:34.055Z,101450.22
2022-08-26T10:18:15.071Z,101451.41
2022-08-26T10:22:40.197Z,101446.81
2022-08-26T10:27:03.614Z,101441.06
2022-08-26T10:31:28.440Z,101435.50
2022-08-26T10:35:32.440Z,101427.69
2022-08-26T10:39:45.030Z,101428.03
2022-08-26T10:43:58.643Z,101425.41
2022-08-26T10:48:06.297Z,101425.88
2022-08-26T10:52:17.749Z,101413.34
2022-08-26T10:56:46.455Z,101421.34
2022-08-26T11:01:14.280Z,101402.84
2022-08-26T11:05:23.555Z,101402.19
2022-08-26T11:09:58.476Z,101396.84
2022-08-26T11:14:03.975Z,101384.00
2022-08-26T11:18:08.938Z,101387.50
2022-08-26T11:22:25.819Z,101380.09
2022-08-26T11:26:55.321Z,101367.78
2022-08-26T11:30:58.436Z,101354.59
2022-08-26T11:35:04.576Z,101354.59
2022-08-26T11:39:19.408Z,101349.59
2022-08-26T11:43:25.868Z,101351.41
2022-08-26T11:47:31.966Z,101348.09
2022-08-26T11:51:40.434Z,101342.88
2022-08-26T11:55:44.887Z,101333.66
2022-08-26T11:59:48.958Z,101325.88
2022-08-26T12:03:52.360Z,101334.19
2022-08-26T12:07:54.840Z,101322.78
2022-08-26T12:12:34.568Z,101335.19
2022-08-26T12:16:39.179Z,101322.72
2022-08-26T12:20:55.866Z,101324.47
2022-08-26T12:25:05.051Z,101321.22
2022-08-26T12:29:19.866Z,101323.81
2022-08-26T12:33:23.296Z,101307.06
2022-08-26T12:37:27.119Z,101293.50
2022-08-26T12:41:47.385Z,101275.59
2022-08-26T12:45:58.399Z,101278.47
2022-08-26T12:50:03.139Z,101292.59
2022-08-26T12:54:06.752Z,101302.63
2022-08-26T12:58:31.595Z,101303.38
2022-08-26T13:02:39.687Z,101317.69
2022-08-26T13:06:41.245Z,101333.19
2022-08-26T13:10:47.241Z,101341.72
2022-08-26T13:14:49.078Z,101304.88
2022-08-26T13:18:54.140Z,101298.56
2022-08-26T13:22:59.085Z,101274.88
2022-08-26T13:27:02.664Z,101286.28
2022-08-26T13:31:04.896Z,101291.16
2022-08-26T13:35:07.922Z,101284.56
2022-08-26T13:39:09.400Z,101283.00
2022-08-26T13:43:11.472Z,101292.16
2022-08-26T13:47:13.279Z,101307.53
2022-08-26T13:51:16.394Z,101295.44
2022-08-26T13:55:17.928Z,101299.78
2022-08-26T13:59:19.373Z,101299.31
2022-08-26T14:03:20.910Z,101287.25
2022-08-26T14:07:22.914Z,101294.28
2022-08-26T14:11:24.936Z,101313.84
2022-08-26T14:15:26.976Z,101319.28
2022-08-26T14:19:31.353Z,101306.78
2022-08-26T14:23:33.550Z,101310.75
2022-08-26T14:27:34.959Z,101322.91
2022-08-26T14:31:38.593Z,101322.69
2022-08-26T14:35:40.578Z,101314.84
2022-08-26T14:39:50.572Z,101311.94
2022-08-26T14:44:13.980Z,101306.66
2022-08-26T14:48:15.498Z,101294.88
2022-08-26T14:52:17.697Z,101285.81
2022-08-26T14:56:19.478Z,101276.19
2022-08-26T15:00:21.156Z,101267.25
2022-08-26T15:04:23.563Z,101262.78
2022-08-26T15:08:25.524Z,101253.63
2022-08-26T15:12:27.735Z,101252.53
2022-08-26T15:16:29.602Z,101249.78
2022-08-26T15:24:37.764Z,101242.16
2022-08-26T15:28:40.339Z,101245.31
2022-08-26T15:32:41.964Z,101242.28
2022-08-26T15:36:45.777Z,101230.03
2022-08-26T15:40:47.291Z,101235.22
2022-08-26T15:44:49.814Z,101231.50
2022-08-26T15:48:51.841Z,101228.56
2022-08-26T15:52:53.304Z,101231.59
2022-08-26T15:56:55.700Z,101244.91
2022-08-26T16:00:57.391Z,101237.38
2022-08-26T16:04:59.045Z,101234.44
2022-08-26T16:09:01.398Z,101234.75
2022-08-26T16:13:04.378Z,101223.44
2022-08-26T16:17:05.846Z,101226.41
2022-08-26T16:21:13.537Z,101222.16
2022-08-26T16:25:15.602Z,101223.03
2022-08-26T16:29:17.588Z,101217.47
2022-08-26T16:33:21.523Z,101214.97
2022-08-26T16:37:30.893Z,101216.16
2022-08-26T16:41:33.247Z,101216.59
2022-08-26T16:45:38.012Z,101217.38
2022-08-26T16:49:43.754Z,101226.72
2022-08-26T16:53:45.941Z,101225.31
2022-08-26T16:57:48.523Z,101225.09
2022-08-26T17:01:50.342Z,101225.09
2022-08-26T17:05:51.868Z,101229.34
2022-08-26T17:09:53.348Z,101228.56
2022-08-26T17:13:54.849Z,101229.97
2022-08-26T17:17:57.014Z,101224.25
2022-08-26T17:21:58.479Z,101216.59
2022-08-26T17:26:00.032Z,101219.72
2022-08-26T17:30:01.767Z,101222.38
2022-08-26T17:34:04.154Z,101222.13
2022-08-26T17:38:05.739Z,101226.88
2022-08-26T17:42:07.247Z,101227.16
2022-08-26T17:46:10.420Z,101224.56
2022-08-26T17:50:15.381Z,101235.13
2022-08-26T17:54:16.932Z,101225.75
2022-08-26T17:58:20.391Z,101232.47
2022-08-26T18:02:24.372Z,101234.25
2022-08-26T18:06:26.000Z,101243.59
2022-08-26T18:10:27.743Z,101254.09
2022-08-26T18:14:29.754Z,101241.56
2022-08-26T18:18:32.592Z,101254.03
2022-08-26T18:22:34.237Z,101247.50
2022-08-26T18:26:37.876Z,101249.97
2022-08-26T18:30:41.701Z,101248.53
2022-08-26T18:34:44.068Z,101235.31
2022-08-26T18:38:47.583Z,101231.63
2022-08-26T18:42:54.043Z,101233.69
2022-08-26T18:46:55.820Z,101227.84
2022-08-26T18:50:59.998Z,101240.28
2022-08-26T18:55:01.738Z,101235.84
2022-08-26T18:59:04.643Z,101231.44
2022-08-26T19:03:06.285Z,101211.69
2022-08-26T19:07:20.138Z,101213.09
2022-08-26T19:11:32.311Z,101205.13
2022-08-26T19:15:40.499Z,101211.00
2022-08-26T19:19:42.002Z,101201.78
2022-08-26T19:23:43.587Z,101208.09
2022-08-26T19:27:45.039Z,101225.31
2022-08-26T19:31:47.916Z,101223.97
2022-08-26T19:35:49.640Z,101218.56
2022-08-26T19:39:51.332Z,101216.22
2022-08-26T19:43:52.837Z,101208.94
2022-08-26T19:47:55.118Z,101214.63
2022-08-26T19:51:57.251Z,101218.88
2022-08-26T19:55:58.874Z,101220.47
2022-08-26T20:00:01.027Z,101216.34
2022-08-26T20:04:02.816Z,101215.97
2022-08-26T20:08:04.291Z,101222.75
2022-08-26T20:12:06.887Z,101238.88
2022-08-26T20:16:10.323Z,101234.22
2022-08-26T20:20:33.714Z,101239.78
2022-08-26T20:24:35.811Z,101245.75
2022-08-26T20:28:37.451Z,101244.66
2022-08-26T20:32:40.148Z,101239.72
2022-08-26T20:36:42.863Z,101256.69
2022-08-26T20:40:44.339Z,101257.03
2022-08-26T20:44:55.051Z,101263.53
2022-08-26T20:48:58.214Z,101268.50
2022-08-26T20:53:00.354Z,101259.47
2022-08-26T20:57:01.812Z,101252.72
2022-08-26T21:01:07.753Z,101255.53
2022-08-26T21:05:09.770Z,101259.88
2022-08-26T21:09:13.006Z,101253.13
2022-08-26T21:13:17.470Z,101251.56
2022-08-26T21:17:18.958Z,101250.97
2022-08-26T21:21:24.970Z,101250.25
2022-08-26T21:25:26.884Z,101245.84
2022-08-26T21:29:28.463Z,101235.53
2022-08-26T21:33:29.955Z,101226.25
2022-08-26T21:37:31.531Z,101224.19
2022-08-26T21:41:33.192Z,101230.09
2022-08-26T21:45:39.944Z,101221.91
2022-08-26T21:49:41.488Z,101218.72
2022-08-26T21:53:43.400Z,101215.03
2022-08-26T21:57:45.111Z,101221.00
2022-08-26T22:01:47.334Z,101222.16
2022-08-26T22:05:51.578Z,101218.94
2022-08-26T22:09:53.018Z,101218.16
2022-08-26T22:13:56.832Z,101222.94
2022-08-26T22:17:58.831Z,101209.19
2022-08-26T22:22:02.240Z,101206.84
2022-08-26T22:26:06.547Z,101207.81
2022-08-26T22:30:08.270Z,101201.00
2022-08-26T22:34:17.061Z,101199.38
2022-08-26T22:38:19.442Z,101196.09
2022-08-26T22:42:20.874Z,101195.56
2022-08-26T22:46:25.304Z,101184.72
2022-08-26T22:50:26.924Z,101180.56
2022-08-26T22:54:28.468Z,101169.03
2022-08-26T22:58:30.431Z,101167.75
2022-08-26T23:02:32.597Z,101167.69
2022-08-26T23:06:36.259Z,101168.28
2022-08-26T23:10:39.907Z,101172.00
2022-08-26T23:14:43.758Z,101162.78
2022-08-26T23:18:45.237Z,101166.31
2022-08-26T23:22:46.714Z,101169.44
2022-08-26T23:26:48.637Z,101171.81
2022-08-26T23:30:50.120Z,101168.00
2022-08-26T23:34:58.803Z,101156.13
2022-08-26T23:39:00.635Z,101155.69
2022-08-26T23:43:05.418Z,101143.47
2022-08-26T23:47:08.051Z,101149.09
2022-08-26T23:51:29.098Z,101145.59
2022-08-26T23:55:33.978Z,101147.53
2022-08-26T23:59:37.873Z,101154.69
